createdAt,value
2019-03-13T00:00:25.845Z,2.67
2019-03-13T00:02:54.295Z,2.10
2019-03-13T00:05:22.758Z,3.23
2019-03-13T00:07:51.145Z,2.63
2019-03-13T00:10:19.553Z,3.10
2019-03-13T00:12:47.995Z,2.13
2019-03-13T00:15:16.521Z,3.30
2019-03-13T00:17:44.984Z,2.47
2019-03-13T00:20:14.226Z,2.13
2019-03-13T00:22:42.863Z,2.00
2019-03-13T00:25:11.236Z,3.33
2019-03-13T00:27:39.632Z,2.43
2019-03-13T00:30:10.460Z,2.00
2019-03-13T00:32:39.100Z,2.30
2019-03-13T00:35:10.224Z,2.20
2019-03-13T00:37:38.604Z,2.10
2019-03-13T00:40:13.232Z,1.60
2019-03-13T00:42:41.613Z,2.50
2019-03-13T00:45:13.997Z,1.77
2019-03-13T00:47:42.394Z,2.33
2019-03-13T00:50:26.165Z,1.70
2019-03-13T00:52:54.574Z,2.27
2019-03-13T00:55:23.024Z,1.90
2019-03-13T00:57:51.414Z,1.70
2019-03-13T01:00:28.813Z,1.63
2019-03-13T01:02:57.445Z,2.33
2019-03-13T01:05:33.447Z,1.80
2019-03-13T01:08:01.837Z,1.57
2019-03-13T01:10:30.229Z,1.57
2019-03-13T01:12:58.858Z,1.60
2019-03-13T01:15:27.257Z,1.60
2019-03-13T01:17:55.636Z,1.13
2019-03-13T01:20:24.020Z,1.70
2019-03-13T01:22:52.411Z,1.33
2019-03-13T01:25:20.789Z,1.27
2019-03-13T01:27:49.177Z,1.67
2019-03-13T01:30:17.564Z,1.10
2019-03-13T01:32:47.630Z,1.57
2019-03-13T01:35:17.667Z,1.07
2019-03-13T01:37:46.060Z,1.93
2019-03-13T01:40:15.264Z,1.67
2019-03-13T01:42:43.661Z,1.70
2019-03-13T01:45:12.389Z,2.03
2019-03-13T01:47:40.768Z,1.20
2019-03-13T01:50:11.998Z,2.00
2019-03-13T01:52:40.445Z,2.03
2019-03-13T01:55:10.177Z,1.80
2019-03-13T01:57:38.632Z,2.27
2019-03-13T02:00:12.703Z,1.77
2019-03-13T02:02:41.098Z,1.70
2019-03-13T02:05:10.317Z,2.17
2019-03-13T02:07:38.714Z,1.30
2019-03-13T02:10:10.396Z,3.03
2019-03-13T02:12:38.853Z,1.73
2019-03-13T02:15:10.330Z,2.10
2019-03-13T02:17:38.719Z,1.60
2019-03-13T02:20:10.131Z,1.90
2019-03-13T02:22:38.580Z,1.90
2019-03-13T02:25:09.968Z,1.80
2019-03-13T02:27:38.370Z,2.07
2019-03-13T02:30:09.841Z,2.00
2019-03-13T02:32:38.215Z,2.63
2019-03-13T02:35:06.740Z,2.33
2019-03-13T02:37:35.173Z,1.50
2019-03-13T02:40:05.462Z,1.37
2019-03-13T02:42:33.837Z,1.20
2019-03-13T02:45:02.227Z,1.67
2019-03-13T02:47:30.619Z,2.37
2019-03-13T02:49:59.140Z,1.53
2019-03-13T02:52:28.073Z,1.27
2019-03-13T02:54:56.450Z,1.33
2019-03-13T02:57:24.920Z,2.43
2019-03-13T02:59:53.550Z,1.30
2019-03-13T03:02:26.258Z,1.00
2019-03-13T03:04:56.129Z,1.97
2019-03-13T03:07:24.588Z,2.57
2019-03-13T03:09:52.961Z,1.60
2019-03-13T03:12:21.362Z,2.20
2019-03-13T03:15:01.615Z,1.53
2019-03-13T03:17:30.044Z,2.20
2019-03-13T03:19:58.515Z,1.70
2019-03-13T03:22:26.892Z,2.30
2019-03-13T03:24:55.292Z,1.70
2019-03-13T03:27:23.673Z,2.23
2019-03-13T03:29:52.053Z,1.57
2019-03-13T03:32:20.648Z,2.13
2019-03-13T03:34:49.613Z,1.10
2019-03-13T03:37:18.024Z,1.63
2019-03-13T03:39:46.410Z,1.83
2019-03-13T03:42:15.558Z,2.17
2019-03-13T03:44:43.964Z,1.93
2019-03-13T03:47:12.381Z,1.07
2019-03-13T03:49:40.772Z,2.00
2019-03-13T03:52:09.153Z,1.47
2019-03-13T03:54:37.566Z,2.43
2019-03-13T03:57:05.946Z,3.40
2019-03-13T03:59:34.337Z,2.43
2019-03-13T04:02:02.741Z,1.80
2019-03-13T04:04:31.117Z,2.20
2019-03-13T04:06:59.664Z,1.77
2019-03-13T04:09:28.049Z,1.97
2019-03-13T04:11:56.430Z,2.47
2019-03-13T04:14:24.839Z,1.77
2019-03-13T04:16:53.249Z,1.70
2019-03-13T04:19:21.641Z,2.40
2019-03-13T04:21:50.026Z,2.63
2019-03-13T04:24:18.424Z,2.17
2019-03-13T04:26:46.813Z,2.33
2019-03-13T04:29:15.223Z,2.37
2019-03-13T04:31:43.598Z,1.97
2019-03-13T04:34:11.986Z,2.63
2019-03-13T04:36:40.379Z,1.87
2019-03-13T04:39:08.772Z,1.77
2019-03-13T04:41:37.172Z,2.50
2019-03-13T04:44:05.550Z,2.03
2019-03-13T04:46:33.940Z,3.23
2019-03-13T04:49:02.320Z,3.20
2019-03-13T04:51:30.706Z,1.83
2019-03-13T04:53:59.105Z,2.40
2019-03-13T04:56:27.505Z,1.83
2019-03-13T04:58:55.890Z,2.70
2019-03-13T05:01:26.236Z,2.10
2019-03-13T05:03:54.397Z,3.10
2019-03-13T05:06:22.795Z,3.10
2019-03-13T05:08:53.321Z,1.83
2019-03-13T05:11:21.705Z,2.67
2019-03-13T05:13:50.141Z,3.37
2019-03-13T05:16:18.528Z,1.97
2019-03-13T05:18:46.937Z,3.40
2019-03-13T05:21:15.313Z,2.47
2019-03-13T05:23:43.713Z,3.53
2019-03-13T05:26:12.104Z,1.80
2019-03-13T05:28:40.494Z,2.50
2019-03-13T05:31:08.890Z,3.40
2019-03-13T05:33:37.345Z,2.63
2019-03-13T05:36:08.010Z,2.67
2019-03-13T05:38:36.400Z,2.63
2019-03-13T05:41:04.800Z,2.73
2019-03-13T05:43:33.189Z,2.23
2019-03-13T05:46:01.589Z,2.90
2019-03-13T05:48:29.992Z,2.50
2019-03-13T05:50:58.385Z,2.10
2019-03-13T05:53:26.779Z,3.33
2019-03-13T05:55:55.180Z,1.73
2019-03-13T05:58:23.560Z,2.43
2019-03-13T06:00:51.952Z,3.20
2019-03-13T06:03:20.353Z,2.40
2019-03-13T06:05:48.730Z,2.90
2019-03-13T06:08:18.515Z,2.73
2019-03-13T06:10:47.245Z,2.57
2019-03-13T06:13:15.691Z,2.63
2019-03-13T06:15:44.050Z,3.03
2019-03-13T06:18:12.657Z,2.03
2019-03-13T06:20:41.052Z,3.23
2019-03-13T06:23:09.523Z,2.17
2019-03-13T06:25:37.905Z,3.70
2019-03-13T06:28:06.305Z,3.50
2019-03-13T06:30:34.692Z,1.87
2019-03-13T06:33:03.088Z,2.17
2019-03-13T06:35:31.467Z,3.53
2019-03-13T06:37:59.871Z,3.17
2019-03-13T06:40:28.261Z,3.10
2019-03-13T06:42:56.648Z,2.57
2019-03-13T06:45:25.038Z,2.50
2019-03-13T06:47:53.430Z,1.80
2019-03-13T06:50:24.585Z,1.77
2019-03-13T06:52:52.940Z,2.57
2019-03-13T06:55:21.348Z,2.07
2019-03-13T06:57:49.809Z,3.33
2019-03-13T07:00:25.712Z,3.00
2019-03-13T07:03:01.880Z,2.00
2019-03-13T07:05:38.007Z,2.17
2019-03-13T07:08:26.274Z,2.53
2019-03-13T07:10:56.293Z,1.77
2019-03-13T07:13:26.325Z,2.87
2019-03-13T07:16:08.506Z,2.10
2019-03-13T07:18:47.164Z,1.90
2019-03-13T07:21:17.205Z,1.57
2019-03-13T07:23:53.227Z,3.03
2019-03-13T07:26:29.022Z,2.07
2019-03-13T07:29:11.643Z,1.63
2019-03-13T07:31:42.831Z,3.40
2019-03-13T07:34:18.362Z,2.30
2019-03-13T07:37:03.436Z,2.00
2019-03-13T07:39:33.466Z,1.77
2019-03-13T07:42:06.208Z,1.67
2019-03-13T07:44:36.253Z,1.90
2019-03-13T07:47:22.732Z,1.83
2019-03-13T07:49:52.769Z,1.97
2019-03-13T07:52:28.916Z,2.40
2019-03-13T07:55:10.906Z,1.63
2019-03-13T07:57:40.929Z,2.17
2019-03-13T08:00:13.765Z,1.50
2019-03-13T08:02:43.804Z,2.43
2019-03-13T08:05:25.820Z,2.27
2019-03-13T08:07:58.520Z,3.07
2019-03-13T08:10:40.681Z,3.33
2019-03-13T08:13:10.804Z,2.57
2019-03-13T08:15:40.826Z,1.37
2019-03-13T08:18:13.613Z,1.90
2019-03-13T08:20:52.724Z,1.97
2019-03-13T08:23:28.490Z,2.67
2019-03-13T08:25:58.517Z,2.20
2019-03-13T08:28:40.492Z,2.70
2019-03-13T08:31:19.493Z,2.47
2019-03-13T08:33:50.981Z,2.40
2019-03-13T08:36:21.033Z,2.40
2019-03-13T08:38:53.750Z,1.70
2019-03-13T08:41:40.179Z,1.77
2019-03-13T08:44:13.049Z,2.97
2019-03-13T08:46:46.006Z,2.33
2019-03-13T08:49:16.111Z,2.83
2019-03-13T08:51:54.988Z,2.50
2019-03-13T08:54:30.517Z,2.20
2019-03-13T08:57:16.853Z,3.37
2019-03-13T09:00:02.595Z,1.90
2019-03-13T09:02:38.641Z,2.77
2019-03-13T09:05:09.956Z,1.47
2019-03-13T09:07:49.029Z,2.67
2019-03-13T09:10:28.086Z,1.33
2019-03-13T09:13:01.390Z,1.80
2019-03-13T09:15:41.717Z,2.20
2019-03-13T09:18:28.306Z,2.27
2019-03-13T09:21:04.051Z,1.93
2019-03-13T09:23:39.806Z,1.77
2019-03-13T09:26:12.801Z,2.80
2019-03-13T09:28:58.105Z,2.57
2019-03-13T09:31:28.137Z,1.20
2019-03-13T09:34:10.015Z,2.10
2019-03-13T09:36:45.785Z,2.87
2019-03-13T09:39:25.041Z,2.50
2019-03-13T09:41:58.013Z,3.00
2019-03-13T09:44:34.021Z,2.00
2019-03-13T09:47:20.631Z,2.20
2019-03-13T09:50:02.679Z,2.17
2019-03-13T09:52:35.761Z,2.80
2019-03-13T09:55:25.662Z,1.50
2019-03-13T09:57:58.347Z,2.50
2019-03-13T10:00:34.595Z,1.70
2019-03-13T10:03:21.121Z,2.20
2019-03-13T10:06:09.178Z,2.20
2019-03-13T10:08:55.345Z,1.53
2019-03-13T10:11:40.361Z,1.00
2019-03-13T10:14:13.133Z,2.70
2019-03-13T10:16:54.834Z,2.00
2019-03-13T10:19:43.560Z,2.60
2019-03-13T10:22:16.345Z,2.30
2019-03-13T10:25:19.174Z,2.17
2019-03-13T10:27:52.441Z,2.23
2019-03-13T10:30:24.948Z,2.50
2019-03-13T10:33:06.952Z,1.23
2019-03-13T10:35:51.517Z,2.27
2019-03-13T10:38:27.587Z,2.10
2019-03-13T10:41:06.473Z,2.37
2019-03-13T10:43:39.228Z,1.77
2019-03-13T10:46:25.498Z,1.50
2019-03-13T10:49:01.677Z,0.97
2019-03-13T10:51:34.578Z,1.23
2019-03-13T10:54:17.008Z,1.93
2019-03-13T10:56:49.737Z,3.50
2019-03-13T10:59:22.941Z,1.80
2019-03-13T11:01:55.665Z,1.60
2019-03-13T11:04:28.684Z,1.97
2019-03-13T11:06:58.726Z,2.07
2019-03-13T11:09:31.805Z,2.50
2019-03-13T11:12:01.905Z,2.47
2019-03-13T11:14:40.977Z,2.47
2019-03-13T11:17:11.037Z,1.90
2019-03-13T11:19:49.876Z,1.50
2019-03-13T11:22:20.170Z,3.13
2019-03-13T11:24:56.145Z,2.43
2019-03-13T11:27:26.194Z,1.90
2019-03-13T11:29:59.183Z,2.90
2019-03-13T11:32:35.210Z,3.13
2019-03-13T11:35:21.413Z,2.80
2019-03-13T11:37:51.440Z,1.47
2019-03-13T11:40:27.153Z,1.63
2019-03-13T11:42:57.178Z,1.00
2019-03-13T11:45:42.517Z,2.03
2019-03-13T11:48:15.238Z,2.00
2019-03-13T11:51:00.568Z,1.50
2019-03-13T11:53:47.297Z,2.33
2019-03-13T11:56:29.403Z,2.17
2019-03-13T11:58:59.428Z,2.50
2019-03-13T12:01:29.468Z,2.33
2019-03-13T12:03:59.499Z,1.67
2019-03-13T12:06:32.393Z,2.10
2019-03-13T12:09:02.498Z,2.10
2019-03-13T12:11:35.201Z,2.63
2019-03-13T12:14:05.253Z,2.43
2019-03-13T12:16:44.449Z,2.50
2019-03-13T12:19:17.457Z,1.50
2019-03-13T12:21:59.293Z,1.90
2019-03-13T12:24:32.288Z,2.33
2019-03-13T12:27:08.020Z,1.77
2019-03-13T12:29:38.053Z,2.80
2019-03-13T12:32:16.820Z,2.73
2019-03-13T12:34:59.133Z,3.07
2019-03-13T12:37:35.396Z,1.60
2019-03-13T12:40:11.328Z,3.17
2019-03-13T12:42:41.362Z,2.37
2019-03-13T12:45:14.710Z,3.33
2019-03-13T12:47:44.737Z,2.80
2019-03-13T12:50:37.471Z,3.17
2019-03-13T12:53:19.824Z,3.03
2019-03-13T12:55:58.366Z,3.80
2019-03-13T12:58:28.417Z,3.30
2019-03-13T13:00:58.449Z,4.60
2019-03-13T13:03:28.488Z,4.43
2019-03-13T13:06:14.900Z,3.07
2019-03-13T13:08:45.004Z,2.43
2019-03-13T13:11:31.281Z,2.33
2019-03-13T13:14:19.486Z,2.90
2019-03-13T13:17:07.577Z,3.00
2019-03-13T13:19:35.973Z,4.00
2019-03-13T13:22:04.437Z,3.13
2019-03-13T13:24:32.894Z,2.23
2019-03-13T13:27:01.293Z,2.77
2019-03-13T13:29:29.692Z,3.67
2019-03-13T13:31:58.085Z,3.83
2019-03-13T13:34:26.916Z,3.40
2019-03-13T13:36:55.452Z,3.90
2019-03-13T13:39:23.920Z,3.40
2019-03-13T13:41:52.306Z,2.27
2019-03-13T13:44:20.687Z,3.90
2019-03-13T13:46:49.099Z,3.70
2019-03-13T13:49:17.503Z,4.03
2019-03-13T13:51:45.889Z,4.10
2019-03-13T13:54:14.288Z,4.00
2019-03-13T13:56:42.670Z,4.00
2019-03-13T13:59:11.286Z,3.93
2019-03-13T14:01:39.673Z,4.13
2019-03-13T14:04:08.074Z,4.00
2019-03-13T14:06:36.489Z,2.73
2019-03-13T14:09:06.421Z,2.83
2019-03-13T14:11:34.815Z,3.60
2019-03-13T14:14:03.201Z,3.67
2019-03-13T14:16:31.600Z,4.00
2019-03-13T14:18:59.989Z,4.27
2019-03-13T14:21:28.385Z,3.80
2019-03-13T14:23:56.778Z,4.20
2019-03-13T14:26:25.211Z,4.30
2019-03-13T14:28:53.650Z,3.70
2019-03-13T14:31:22.050Z,4.23
2019-03-13T14:36:53.425Z,3.47
2019-03-13T14:39:21.820Z,4.30
2019-03-13T14:41:50.200Z,5.10
2019-03-13T14:44:18.600Z,3.10
2019-03-13T14:46:46.984Z,1.93
2019-03-13T14:49:15.370Z,2.07
2019-03-13T14:51:43.760Z,3.53
2019-03-13T14:54:12.146Z,3.33
2019-03-13T14:56:40.553Z,3.27
2019-03-13T14:59:08.941Z,3.07
2019-03-13T15:01:37.320Z,3.17
2019-03-13T15:04:05.721Z,3.27
2019-03-13T15:06:34.133Z,3.20
2019-03-13T15:09:02.525Z,2.83
2019-03-13T15:11:30.921Z,2.60
2019-03-13T15:13:59.314Z,2.23
2019-03-13T15:16:27.704Z,3.13
2019-03-13T15:18:56.100Z,2.47
2019-03-13T15:21:24.504Z,2.63
2019-03-13T15:23:52.901Z,3.03
2019-03-13T15:26:21.330Z,3.10
2019-03-13T15:28:49.713Z,2.40
2019-03-13T15:31:18.093Z,2.40
2019-03-13T15:33:46.488Z,1.87
2019-03-13T15:36:14.880Z,2.30
2019-03-13T15:38:43.298Z,2.03
2019-03-13T15:41:11.688Z,2.83
2019-03-13T15:43:40.095Z,2.27
2019-03-13T15:46:08.479Z,2.37
2019-03-13T15:48:36.842Z,2.03
2019-03-13T15:51:05.245Z,2.20
2019-03-13T15:53:33.655Z,2.27
2019-03-13T15:56:02.031Z,1.97
2019-03-13T15:58:30.517Z,2.83
2019-03-13T16:00:58.936Z,1.10
2019-03-13T16:03:27.345Z,1.13
2019-03-13T16:05:55.732Z,1.50
2019-03-13T16:08:24.145Z,1.30
2019-03-13T16:10:52.544Z,1.30
2019-03-13T16:13:20.933Z,1.13
2019-03-13T16:15:49.321Z,1.10
2019-03-13T16:18:17.713Z,1.50
2019-03-13T16:20:46.100Z,1.77
2019-03-13T16:23:17.033Z,1.67
2019-03-13T16:25:44.631Z,2.57
2019-03-13T16:28:13.015Z,2.40
2019-03-13T16:30:52.037Z,1.40
2019-03-13T16:33:20.425Z,1.93
2019-03-13T16:35:48.806Z,1.53
2019-03-13T16:38:17.197Z,1.90
2019-03-13T16:40:45.576Z,1.97
2019-03-13T16:43:13.970Z,2.13
2019-03-13T16:45:42.440Z,2.33
2019-03-13T16:48:10.845Z,2.90
2019-03-13T16:50:39.232Z,2.03
2019-03-13T16:53:07.747Z,3.13
2019-03-13T16:55:36.210Z,2.80
2019-03-13T16:58:04.744Z,2.67
2019-03-13T17:00:35.196Z,2.60
2019-03-13T17:03:03.596Z,3.10
2019-03-13T17:05:32.042Z,3.13
2019-03-13T17:08:00.450Z,2.57
2019-03-13T17:10:30.659Z,3.30
2019-03-13T17:12:59.165Z,3.43
2019-03-13T17:15:27.698Z,3.57
2019-03-13T17:17:56.912Z,3.47
2019-03-13T17:20:34.449Z,3.33
2019-03-13T17:23:02.839Z,4.43
2019-03-13T17:25:31.225Z,4.53
2019-03-13T17:27:59.625Z,3.57
2019-03-13T17:30:30.710Z,4.77
2019-03-13T17:33:01.309Z,4.20
2019-03-13T17:35:29.782Z,4.10
2019-03-13T17:37:58.161Z,4.00
2019-03-13T17:40:28.384Z,4.43
2019-03-13T17:42:56.846Z,4.20
2019-03-13T17:45:26.165Z,3.97
2019-03-13T17:47:55.434Z,3.87
2019-03-13T17:50:26.039Z,3.40
2019-03-13T17:52:54.416Z,4.30
2019-03-13T17:55:24.940Z,3.87
2019-03-13T17:57:53.456Z,4.07
2019-03-13T18:00:41.504Z,3.43
2019-03-13T18:03:09.901Z,4.87
2019-03-13T18:05:38.284Z,3.90
2019-03-13T18:08:06.668Z,4.23
2019-03-13T18:10:35.065Z,5.03
2019-03-13T18:13:03.452Z,5.03
2019-03-13T18:15:31.929Z,4.13
2019-03-13T18:18:00.316Z,4.40
2019-03-13T18:20:28.709Z,4.50
2019-03-13T18:22:57.105Z,4.10
2019-03-13T18:25:25.492Z,4.67
2019-03-13T18:27:53.907Z,3.93
2019-03-13T18:30:28.388Z,3.40
2019-03-13T18:32:56.842Z,3.97
2019-03-13T18:35:25.248Z,4.90
2019-03-13T18:37:53.684Z,4.90
2019-03-13T18:40:26.210Z,5.47
2019-03-13T18:42:54.599Z,4.80
2019-03-13T18:45:31.084Z,5.43
2019-03-13T18:47:59.914Z,5.03
2019-03-13T18:50:29.736Z,5.10
2019-03-13T18:52:58.189Z,4.07
2019-03-13T18:55:31.504Z,3.93
2019-03-13T18:57:59.900Z,3.80
2019-03-13T19:00:33.230Z,4.40
2019-03-13T19:03:02.497Z,4.43
2019-03-13T19:05:33.612Z,5.83
2019-03-13T19:08:02.034Z,4.53
2019-03-13T19:10:33.047Z,4.73
2019-03-13T19:13:22.605Z,5.40
2019-03-13T19:15:50.996Z,5.80
2019-03-13T19:18:19.397Z,5.40
2019-03-13T19:20:47.781Z,4.43
2019-03-13T19:23:16.189Z,3.73
2019-03-13T19:25:44.590Z,4.30
2019-03-13T19:28:12.995Z,4.07
2019-03-13T19:30:41.388Z,4.30
2019-03-13T19:33:09.800Z,3.70
2019-03-13T19:35:38.185Z,3.27
2019-03-13T19:38:12.042Z,2.80
2019-03-13T19:40:40.497Z,3.10
2019-03-13T19:43:08.918Z,2.50
2019-03-13T19:45:45.652Z,2.83
2019-03-13T19:48:14.057Z,2.90
2019-03-13T19:50:42.445Z,2.70
2019-03-13T19:53:10.864Z,2.73
2019-03-13T19:55:39.389Z,3.20
2019-03-13T19:58:08.014Z,2.67
2019-03-13T20:00:36.409Z,3.00
2019-03-13T20:03:12.823Z,3.90
2019-03-13T20:05:45.774Z,3.23
2019-03-13T20:08:13.709Z,3.80
2019-03-13T20:10:41.561Z,3.47
2019-03-13T20:13:10.009Z,2.80
2019-03-13T20:15:39.979Z,2.33
2019-03-13T20:18:08.354Z,2.37
2019-03-13T20:20:36.738Z,2.77
2019-03-13T20:23:07.436Z,2.80
2019-03-13T20:25:35.825Z,3.70
2019-03-13T20:28:05.073Z,3.77
2019-03-13T20:30:34.296Z,3.87
2019-03-13T20:33:02.748Z,4.30
2019-03-13T20:35:31.140Z,4.67
2019-03-13T20:37:59.522Z,5.23
2019-03-13T20:40:28.947Z,5.67
2019-03-13T20:42:57.352Z,5.97
2019-03-13T20:45:29.837Z,6.37
2019-03-13T20:47:58.330Z,7.13
2019-03-13T20:50:36.565Z,7.40
2019-03-13T20:52:57.044Z,6.30
2019-03-13T20:55:25.564Z,5.50
2019-03-13T20:57:53.968Z,6.10
2019-03-13T21:00:27.658Z,5.27
2019-03-13T21:02:57.978Z,4.23
2019-03-13T21:05:26.589Z,4.53
2019-03-13T21:07:55.836Z,4.43
2019-03-13T21:10:24.324Z,4.13
2019-03-13T21:12:52.775Z,4.00
2019-03-13T21:15:24.392Z,3.00
2019-03-13T21:17:52.935Z,2.80
2019-03-13T21:20:22.277Z,2.87
2019-03-13T21:22:50.709Z,2.40
2019-03-13T21:25:24.676Z,2.13
2019-03-13T21:27:53.073Z,2.30
2019-03-13T21:30:24.705Z,2.23
2019-03-13T21:32:53.365Z,2.57
2019-03-13T21:35:21.930Z,2.30
2019-03-13T21:37:50.312Z,1.83
2019-03-13T21:40:26.573Z,2.37
2019-03-13T21:42:55.549Z,1.90
2019-03-13T21:45:24.685Z,2.43
2019-03-13T21:47:53.229Z,1.97
2019-03-13T21:50:22.697Z,1.47
2019-03-13T21:52:51.156Z,1.30
2019-03-13T21:55:20.493Z,1.00
2019-03-13T21:57:51.742Z,1.50
2019-03-13T22:00:22.270Z,1.00
2019-03-13T22:02:51.485Z,0.80
2019-03-13T22:05:41.192Z,1.00
2019-03-13T22:08:09.855Z,1.03
2019-03-13T22:10:38.288Z,1.00
2019-03-13T22:13:06.673Z,1.60
2019-03-13T22:15:35.056Z,1.17
2019-03-13T22:18:03.506Z,1.50
2019-03-13T22:20:31.896Z,1.50
2019-03-13T22:23:00.278Z,1.40
2019-03-13T22:25:28.652Z,1.23
2019-03-13T22:27:57.049Z,1.63
2019-03-13T22:30:28.889Z,1.47
2019-03-13T22:32:56.618Z,1.70
2019-03-13T22:35:24.996Z,1.70
2019-03-13T22:37:53.393Z,1.40
2019-03-13T22:40:21.776Z,1.50
2019-03-13T22:42:50.169Z,1.53
2019-03-13T22:45:20.885Z,1.70
2019-03-13T22:47:49.267Z,2.07
2019-03-13T22:50:23.014Z,2.07
2019-03-13T22:52:51.542Z,2.30
2019-03-13T22:55:20.105Z,2.93
2019-03-13T22:57:48.569Z,3.40
2019-03-13T23:00:29.890Z,3.87
2019-03-13T23:02:58.298Z,4.03
2019-03-13T23:05:26.684Z,4.60
2019-03-13T23:07:55.064Z,4.10
2019-03-13T23:10:34.703Z,3.93
2019-03-13T23:13:03.096Z,4.70
2019-03-13T23:15:31.481Z,6.70
2019-03-13T23:17:59.869Z,5.30
2019-03-13T23:20:28.506Z,5.53
2019-03-13T23:22:56.881Z,5.60
2019-03-13T23:25:25.272Z,4.93
2019-03-13T23:27:53.652Z,5.20
2019-03-13T23:30:22.107Z,6.67
2019-03-13T23:32:50.528Z,11.53
2019-03-13T23:35:18.924Z,8.00
2019-03-13T23:37:47.315Z,7.40
2019-03-13T23:40:15.769Z,5.10
2019-03-13T23:42:44.234Z,7.43
2019-03-13T23:45:12.763Z,8.17
2019-03-13T23:47:41.477Z,8.10
2019-03-13T23:50:12.700Z,8.87
2019-03-13T23:52:41.081Z,7.13
2019-03-13T23:55:11.460Z,5.10
2019-03-13T23:57:39.868Z,4.30
